Time;durP1;ratioP1;P1;durP2;ratioP2;P2;SDS_P1;SDS_P2;PMS_P1;PMS_P2;Temp;Humidity;BMP_temperature;BMP_pressure;BME280_temperature;BME280_humidity;BME280_pressure;Samples;Min_cycle;Max_cycle;Signal;HPM_P1;HPM_P2
2022/12/13 00:01:58;;;;;;;;;25.50;22.25;;;;;0.07;64.19;100361.38;5099843;27;45350;-50
2022/12/13 00:04:24;;;;;;;;;29.75;22.75;;;;;0.04;64.79;100356.31;5099329;27;46236;-52
2022/12/13 00:06:52;;;;;;;;;35.25;22.00;;;;;0.10;64.58;100357.75;5099628;27;45419;-50
2022/12/13 00:09:19;;;;;;;;;36.00;27.50;;;;;0.10;64.16;100358.59;5099465;27;45247;-50
2022/12/13 00:11:44;;;;;;;;;48.25;29.00;;;;;0.11;64.29;100354.19;5098430;27;45460;-51
2022/12/13 00:14:12;;;;;;;;;29.00;21.50;;;;;0.13;63.88;100357.56;5099194;27;45851;-50
2022/12/13 00:16:39;;;;;;;;;31.25;20.75;;;;;0.10;64.01;100349.91;5099252;27;45356;-52
2022/12/13 00:19:04;;;;;;;;;35.00;24.75;;;;;0.06;63.96;100343.16;5099335;27;45311;-50
2022/12/13 00:21:31;;;;;;;;;41.50;28.00;;;;;0.07;63.72;100345.69;5099460;27;45474;-54
2022/12/13 00:23:58;;;;;;;;;39.75;26.75;;;;;0.02;63.70;100332.03;5098910;27;45983;-54
2022/12/13 00:26:27;;;;;;;;;28.50;27.00;;;;;0.01;63.62;100325.13;5099015;27;45212;-48
2022/12/13 00:28:53;;;;;;;;;29.00;22.00;;;;;0.06;63.54;100340.53;5097981;27;45444;-50
2022/12/13 00:31:21;;;;;;;;;34.75;21.50;;;;;0.06;63.13;100338.78;5099305;27;45318;-49
2022/12/13 00:33:47;;;;;;;;;27.25;26.00;;;;;0.07;63.77;100331.75;5098825;27;46314;-48
2022/12/13 00:36:12;;;;;;;;;24.75;15.75;;;;;0.02;63.81;100328.59;5098719;27;45406;-52
2022/12/13 00:38:38;;;;;;;;;30.50;15.75;;;;;0.07;63.29;100335.22;5098844;27;45339;-47
2022/12/13 00:41:15;;;;;;;;;29.75;24.00;;;;;0.07;63.58;100335.22;5098973;27;45575;-50
2022/12/13 00:43:41;;;;;;;;;33.00;25.00;;;;;0.10;63.58;100339.44;5098628;27;46280;-51
2022/12/13 00:46:23;;;;;;;;;44.50;23.50;;;;;0.01;63.64;100311.22;5098886;27;45334;-48
2022/12/13 00:48:52;;;;;;;;;27.75;22.75;;;;;0.09;63.17;100330.75;5098508;27;45238;-50
2022/12/13 00:51:18;;;;;;;;;33.75;24.75;;;;;0.12;63.44;100333.16;5098843;27;45293;-51
2022/12/13 00:53:43;;;;;;;;;31.00;23.50;;;;;0.08;63.12;100329.03;5098649;27;46154;-48
2022/12/13 00:56:13;;;;;;;;;27.75;21.00;;;;;0.11;62.89;100328.88;5098397;27;45361;-51
2022/12/13 00:58:39;;;;;;;;;29.50;20.50;;;;;0.10;63.26;100318.50;5098502;27;45278;-50
2022/12/13 01:01:11;;;;;;;;;26.75;18.25;;;;;0.11;62.74;100336.72;5098996;27;45219;-51
2022/12/13 01:03:38;;;;;;;;;28.00;20.50;;;;;0.10;62.68;100327.19;5098149;27;45619;-51
2022/12/13 01:06:19;;;;;;;;;27.50;21.50;;;;;0.08;62.51;100328.22;5098374;27;45449;-50
2022/12/13 01:08:47;;;;;;;;;22.75;18.25;;;;;0.05;62.99;100321.41;5098509;27;45440;-49
2022/12/13 01:11:12;;;;;;;;;24.50;15.75;;;;;0.08;62.51;100333.44;5098584;27;45377;-49
2022/12/13 01:13:38;;;;;;;;;30.75;25.00;;;;;0.08;62.53;100331.66;5098232;27;46196;-48
2022/12/13 01:16:07;;;;;;;;;31.00;23.25;;;;;0.09;62.60;100332.53;5098471;27;45246;-49
2022/12/13 01:18:33;;;;;;;;;21.50;18.25;;;;;0.10;62.26;100332.44;5098362;27;45317;-49
2022/12/13 01:21:05;;;;;;;;;32.25;22.75;;;;;0.10;62.59;100335.03;5098895;27;45332;-48
2022/12/13 01:23:32;;;;;;;;;26.50;23.00;;;;;0.07;62.48;100323.91;5098118;27;46130;-48
2022/12/13 01:25:57;;;;;;;;;29.25;18.75;;;;;0.12;62.20;100325.31;5098009;27;45428;-49
2022/12/13 01:28:23;;;;;;;;;30.75;18.75;;;;;0.13;61.80;100326.19;5098200;27;45309;-53
2022/12/13 01:30:54;;;;;;;;;31.00;21.25;;;;;0.12;62.59;100322.69;5098354;27;45451;-49
2022/12/13 01:33:20;;;;;;;;;23.50;20.50;;;;;0.11;62.08;100318.41;5097849;27;46079;-53
2022/12/13 01:35:45;;;;;;;;;21.75;21.25;;;;;0.12;61.88;100317.47;5098068;27;45473;-51
2022/12/13 01:38:10;;;;;;;;;19.00;17.75;;;;;0.12;61.69;100312.25;5096522;27;45691;-53
2022/12/13 01:40:43;;;;;;;;;30.00;23.50;;;;;0.11;61.89;100315.78;5098028;27;45459;-53
2022/12/13 01:43:12;;;;;;;;;18.50;15.50;;;;;0.12;61.45;100311.41;5097753;27;46224;-54
2022/12/13 01:45:37;;;;;;;;;25.00;16.00;;;;;0.13;61.33;100313.13;5097750;27;45368;-54
2022/12/13 01:48:08;;;;;;;;;29.00;19.75;;;;;0.12;62.03;100304.41;5097814;27;45370;-52
2022/12/13 01:50:37;;;;;;;;;21.75;16.25;;;;;0.11;61.62;100309.72;5098083;27;45407;-52
2022/12/13 01:53:07;;;;;;;;;26.00;17.00;;;;;0.13;61.98;100316.56;5097367;27;46274;-49
2022/12/13 01:55:37;;;;;;;;;19.00;18.00;;;;;0.12;61.35;100312.25;5097394;27;45243;-52
2022/12/13 01:58:04;;;;;;;;;28.25;20.50;;;;;0.12;61.35;100311.41;5097954;27;45384;-53
2022/12/13 02:00:33;;;;;;;;;23.50;18.00;;;;;0.13;61.55;100311.34;5097766;27;45410;-54
2022/12/13 02:03:01;;;;;;;;;37.00;19.50;;;;;0.13;61.32;100321.78;5097451;27;46322;-53
2022/12/13 02:05:43;;;;;;;;;18.50;17.25;;;;;0.06;61.39;100312.63;5097415;27;45330;-53
2022/12/13 02:08:12;;;;;;;;;24.25;18.25;;;;;0.13;61.24;100327.03;5097896;27;45267;-53
2022/12/13 02:10:38;;;;;;;;;18.50;14.00;;;;;0.14;60.82;100323.47;5097804;27;45415;-54
2022/12/13 02:13:04;;;;;;;;;18.00;14.50;;;;;0.09;60.89;100320.28;5097428;27;46161;-51
2022/12/13 02:15:56;;;;;;;;;29.00;19.50;;;;;0.14;60.59;100331.31;5097313;27;45372;-53
2022/12/13 02:18:43;;;;;;;;;21.25;15.25;;;;;0.13;60.80;100334.03;5097473;27;45394;-51
2022/12/13 02:21:15;;;;;;;;;30.50;20.50;;;;;0.11;60.18;100326.25;5097442;27;45496;-53
2022/12/13 02:23:40;;;;;;;;;24.00;15.00;;;;;0.10;60.49;100324.59;5100703;27;45463;-54
2022/12/13 02:26:24;;;;;;;;;23.00;16.00;;;;;0.09;60.92;100325.53;5101077;27;45440;-54
2022/12/13 02:29:07;;;;;;;;;24.00;20.50;;;;;0.08;60.15;100325.59;5101223;27;45283;-53
2022/12/13 02:32:09;;;;;;;;;22.25;15.25;;;;;0.08;60.94;100325.59;5101181;27;45292;-54
2022/12/13 02:34:57;;;;;;;;;30.50;20.50;;;;;0.05;60.77;100326.63;5100958;27;45471;-50
2022/12/13 02:37:34;;;;;;;;;24.75;17.00;;;;;0.03;60.72;100325.03;5101071;27;45372;-52
2022/12/13 02:40:07;;;;;;;;;11.50;8.00;;;;;-0.01;59.71;100325.19;5101054;27;45234;-52
2022/12/13 02:42:51;;;;;;;;;19.50;14.75;;;;;-0.11;60.46;100299.69;5101088;27;45172;-53
2022/12/13 02:45:27;;;;;;;;;24.25;15.25;;;;;-0.01;60.48;100316.50;5100578;27;45474;-54
2022/12/13 02:47:56;;;;;;;;;20.75;15.50;;;;;-0.03;60.49;100311.38;5100387;27;45529;-52
2022/12/13 02:50:24;;;;;;;;;19.75;17.50;;;;;-0.05;59.66;100325.47;5100761;27;45405;-51
2022/12/13 02:52:51;;;;;;;;;25.75;18.25;;;;;-0.06;59.74;100315.94;5100841;27;45477;-54
2022/12/13 02:55:16;;;;;;;;;25.25;16.00;;;;;-0.09;60.12;100305.66;5100545;27;46110;-53
2022/12/13 02:57:44;;;;;;;;;18.00;12.00;;;;;-0.15;60.18;100299.03;5100585;27;45346;-54
2022/12/13 03:00:12;;;;;;;;;16.50;14.00;;;;;-0.06;60.10;100308.09;5100507;27;45243;-54
2022/12/13 03:02:51;;;;;;;;;20.50;17.50;;;;;-0.08;59.84;100305.59;5100639;27;45416;-53
2022/12/13 03:08:27;;;;;;;;;26.00;17.50;;;;;-0.08;59.22;100302.13;5100271;27;45220;-54
2022/12/13 03:10:52;;;;;;;;;21.25;12.00;;;;;-0.09;59.95;100300.44;5100367;27;45491;-53
2022/12/13 03:13:43;;;;;;;;;15.25;12.00;;;;;-0.11;59.73;100292.69;5100608;27;45290;-54
2022/12/13 03:16:23;;;;;;;;;24.50;14.50;;;;;-0.16;60.08;100286.06;5089134;27;46124;-53
2022/12/13 03:18:51;;;;;;;;;7.00;7.00;;;;;-0.14;59.29;100287.63;5100098;27;45318;-52
2022/12/13 03:21:16;;;;;;;;;9.25;7.50;;;;;-0.17;59.51;100289.56;5100196;27;45278;-52
2022/12/13 03:23:41;;;;;;;;;10.50;6.25;;;;;-0.19;59.96;100283.63;5100307;27;45396;-52
2022/12/13 03:26:11;;;;;;;;;22.00;13.00;;;;;-0.21;59.11;100288.06;5099727;27;47196;-53
2022/12/13 03:28:38;;;;;;;;;23.00;17.50;;;;;-0.26;59.35;100281.34;5100115;27;45349;-51
2022/12/13 03:31:04;;;;;;;;;25.50;19.25;;;;;-0.40;59.81;100257.78;5100069;27;45381;-53
2022/12/13 03:33:29;;;;;;;;;18.50;12.50;;;;;-0.28;59.11;100275.38;5098961;27;45360;-51
2022/12/13 03:35:55;;;;;;;;;22.00;12.75;;;;;-0.30;59.29;100269.38;5099813;27;47227;-55
2022/12/13 03:38:21;;;;;;;;;22.00;18.00;;;;;-0.30;59.16;100266.75;5099775;27;45440;-54
2022/12/13 03:40:47;;;;;;;;;14.00;14.00;;;;;-0.30;59.73;100263.31;5100048;27;45175;-54
2022/12/13 03:43:13;;;;;;;;;30.50;17.25;;;;;-0.36;59.18;100255.84;5099959;27;45186;-54
2022/12/13 03:45:38;;;;;;;;;13.50;11.00;;;;;-0.27;59.59;100265.75;5099588;27;45486;-50
2022/12/13 03:48:03;;;;;;;;;22.50;16.50;;;;;-0.27;58.40;100274.44;5099590;27;45275;-54
2022/12/13 03:50:29;;;;;;;;;26.00;18.00;;;;;-0.26;59.35;100280.50;5099418;27;45378;-55
2022/12/13 03:52:59;;;;;;;;;27.25;17.00;;;;;-0.30;59.35;100279.00;5099891;27;45507;-51
2022/12/13 03:55:25;;;;;;;;;24.50;19.00;;;;;-0.27;59.09;100281.44;5099522;27;45974;-54
2022/12/13 03:57:50;;;;;;;;;23.00;12.50;;;;;-0.26;58.84;100276.13;5099502;27;45314;-52
2022/12/13 04:00:15;;;;;;;;;19.50;18.25;;;;;-0.23;58.97;100275.09;5099685;27;45416;-53
2022/12/13 04:02:41;;;;;;;;;15.25;11.50;;;;;-0.23;59.56;100276.88;5099760;27;45505;-53
2022/12/13 04:05:07;;;;;;;;;25.00;18.75;;;;;-0.22;59.66;100286.41;5099482;27;46212;-52
2022/12/13 04:07:32;;;;;;;;;17.50;12.00;;;;;-0.25;59.03;100282.22;5099329;27;45381;-55
2022/12/13 04:09:57;;;;;;;;;18.00;18.00;;;;;-0.24;58.68;100283.88;5099446;27;45398;-52
2022/12/13 04:15:07;;;;;;;;;19.75;12.75;;;;;-0.26;59.30;100283.94;5099334;27;45204;-54
2022/12/13 04:17:32;;;;;;;;;25.25;17.50;;;;;-0.28;58.89;100287.59;5099334;27;45369;-54
2022/12/13 04:19:58;;;;;;;;;19.75;16.50;;;;;-0.40;58.81;100265.63;5097705;27;45363;-53
2022/12/13 04:22:23;;;;;;;;;28.25;14.75;;;;;-0.31;60.10;100280.78;5099325;27;45518;-54
2022/12/13 04:24:48;;;;;;;;;27.25;17.00;;;;;-0.35;58.96;100267.97;5098884;27;47079;-54
2022/12/13 04:27:14;;;;;;;;;24.25;21.25;;;;;-0.32;59.33;100262.56;5098890;27;45145;-54
2022/12/13 04:29:39;;;;;;;;;24.00;15.25;;;;;-0.34;59.08;100254.84;5099142;27;45409;-51
2022/12/13 04:32:05;;;;;;;;;21.00;12.50;;;;;-0.34;59.49;100256.59;5099455;27;45362;-49
2022/12/13 04:34:30;;;;;;;;;22.50;18.25;;;;;-0.34;59.16;100261.81;5098938;27;46261;-50
2022/12/13 04:36:55;;;;;;;;;25.00;18.50;;;;;-0.36;58.89;100261.06;5098825;27;45235;-54
2022/12/13 04:39:21;;;;;;;;;22.25;16.00;;;;;-0.37;59.19;100262.00;5099175;27;45604;-54
2022/12/13 04:41:46;;;;;;;;;25.75;14.50;;;;;-0.41;59.44;100248.28;5099001;27;45413;-53
2022/12/13 04:44:11;;;;;;;;;27.00;21.25;;;;;-0.42;59.35;100243.13;5098609;27;46025;-49
2022/12/13 04:46:37;;;;;;;;;30.00;24.25;;;;;-0.42;58.90;100246.59;5098493;27;45237;-54
2022/12/13 04:49:02;;;;;;;;;25.75;17.25;;;;;-0.37;59.29;100257.63;5098747;27;45460;-48
2022/12/13 04:51:28;;;;;;;;;23.50;18.50;;;;;-0.39;59.27;100256.84;5097502;27;45565;-50
2022/12/13 04:53:53;;;;;;;;;22.50;18.00;;;;;-0.38;59.73;100253.34;5098637;27;46060;-52
2022/12/13 04:56:19;;;;;;;;;25.00;21.75;;;;;-0.47;59.25;100235.53;5098897;27;45425;-50
2022/12/13 04:58:44;;;;;;;;;21.50;20.25;;;;;-0.40;59.72;100255.19;5098599;27;45520;-50
2022/12/13 05:01:11;;;;;;;;;27.50;22.75;;;;;-0.39;59.06;100262.06;5098832;27;45321;-48
2022/12/13 05:03:37;;;;;;;;;14.75;12.25;;;;;-0.37;59.57;100256.78;5098426;27;46316;-48
2022/12/13 05:06:07;;;;;;;;;31.75;25.50;;;;;-0.37;59.81;100248.94;5098518;27;45390;-52
2022/12/13 05:08:33;;;;;;;;;28.75;19.00;;;;;-0.38;59.05;100247.22;5098406;27;45378;-50
2022/12/13 05:10:58;;;;;;;;;26.75;20.50;;;;;-0.39;58.95;100243.78;5098556;27;45358;-51
2022/12/13 05:13:24;;;;;;;;;19.50;18.00;;;;;-0.39;59.72;100243.78;5098297;27;46324;-56
2022/12/13 05:15:57;;;;;;;;;23.75;15.50;;;;;-0.42;59.57;100236.16;5098224;27;45423;-50
2022/12/13 05:18:23;;;;;;;;;22.00;19.75;;;;;-0.47;59.44;100238.16;5098558;27;45373;-49
2022/12/13 05:20:49;;;;;;;;;30.75;18.75;;;;;-0.44;59.56;100245.84;5098345;27;45336;-50
2022/12/13 05:23:16;;;;;;;;;20.25;15.50;;;;;-0.45;59.43;100236.31;5098190;27;46087;-52
2022/12/13 05:25:41;;;;;;;;;31.75;21.50;;;;;-0.48;59.17;100246.94;5098081;27;45466;-53
2022/12/13 05:28:06;;;;;;;;;22.00;19.00;;;;;-0.49;59.73;100242.66;5098169;27;45275;-50
2022/12/13 05:30:32;;;;;;;;;34.75;22.25;;;;;-0.52;59.38;100243.66;5098270;27;45231;-50
2022/12/13 05:32:58;;;;;;;;;19.25;14.25;;;;;-0.50;59.93;100240.97;5097774;27;46166;-50
2022/12/13 05:35:23;;;;;;;;;29.50;21.00;;;;;-0.56;59.74;100229.09;5097856;27;45487;-52
2022/12/13 05:37:48;;;;;;;;;27.50;20.00;;;;;-0.56;59.51;100236.09;5097853;27;45287;-51
2022/12/13 05:40:14;;;;;;;;;42.00;24.50;;;;;-0.52;59.45;100245.44;5098229;27;45508;-52
2022/12/13 05:42:39;;;;;;;;;35.25;25.50;;;;;-0.64;59.43;100227.84;5097717;27;45296;-48
2022/12/13 05:45:07;;;;;;;;;25.00;21.25;;;;;-0.52;59.85;100253.28;5097914;27;45321;-52
2022/12/13 05:47:32;;;;;;;;;30.00;20.25;;;;;-0.49;59.46;100255.72;5097573;27;45816;-54
2022/12/13 05:49:57;;;;;;;;;25.75;17.50;;;;;-0.48;60.04;100254.78;5097843;27;45562;-52
2022/12/13 05:52:23;;;;;;;;;23.00;18.75;;;;;-0.46;59.86;100252.94;5096106;27;46040;-51
2022/12/13 05:54:53;;;;;;;;;26.75;19.00;;;;;-0.43;59.54;100257.13;5097770;27;45467;-54
2022/12/13 05:57:19;;;;;;;;;30.25;21.75;;;;;-0.45;59.72;100252.00;5096988;27;45374;-52
2022/12/13 05:59:44;;;;;;;;;30.00;22.75;;;;;-0.44;59.95;100256.28;5097956;27;45235;-54
2022/12/13 06:02:09;;;;;;;;;19.25;18.00;;;;;-0.43;60.05;100257.13;5097587;27;47305;-52
2022/12/13 06:04:35;;;;;;;;;27.25;21.25;;;;;-0.42;59.24;100258.78;5096398;27;45405;-52
2022/12/13 06:07:00;;;;;;;;;24.50;20.00;;;;;-0.44;59.26;100258.91;5096023;27;45369;-52
2022/12/13 06:09:25;;;;;;;;;24.00;17.00;;;;;-0.45;59.75;100267.66;5097735;27;45435;-51
2022/12/13 06:11:51;;;;;;;;;21.50;19.25;;;;;-0.46;59.38;100268.59;5097357;27;46269;-52
2022/12/13 06:14:16;;;;;;;;;23.00;18.50;;;;;-0.46;59.53;100281.69;5097388;27;45523;-49
2022/12/13 06:16:42;;;;;;;;;27.00;20.25;;;;;-0.44;59.63;100281.56;5097475;27;45876;-49
2022/12/13 06:19:07;;;;;;;;;18.00;15.50;;;;;-0.45;59.60;100287.75;5097574;27;45470;-47
2022/12/13 06:21:33;;;;;;;;;24.25;18.00;;;;;-0.46;59.83;100284.28;5097201;27;46930;-53
2022/12/13 06:23:59;;;;;;;;;26.25;22.75;;;;;-0.45;59.27;100283.34;5097486;27;45324;-49
2022/12/13 06:26:24;;;;;;;;;22.00;17.50;;;;;-0.43;59.94;100281.47;5097481;27;45349;-49
2022/12/13 06:28:50;;;;;;;;;19.25;18.25;;;;;-0.42;59.27;100283.19;5097568;27;45521;-52
2022/12/13 06:31:15;;;;;;;;;26.75;21.25;;;;;-0.39;59.71;100282.97;5097533;27;45635;-52
2022/12/13 06:33:40;;;;;;;;;24.75;16.75;;;;;-0.39;59.17;100285.59;5097655;27;45290;-52
2022/12/13 06:36:06;;;;;;;;;27.00;18.75;;;;;-0.36;59.89;100290.66;5098373;27;45429;-51
2022/12/13 06:38:32;;;;;;;;;24.50;20.50;;;;;-0.37;59.22;100288.13;5098567;27;45386;-57
2022/12/13 06:41:12;;;;;;;;;27.50;25.25;;;;;-0.34;59.21;100287.94;5098546;27;45225;-56
2022/12/13 06:43:42;;;;;;;;;25.00;23.50;;;;;-0.31;59.44;100278.16;5097551;27;45424;-49
2022/12/13 06:46:07;;;;;;;;;29.00;20.50;;;;;-0.30;59.05;100279.84;5097012;27;45363;-54
2022/12/13 06:48:32;;;;;;;;;31.00;22.50;;;;;-0.28;59.04;100277.16;5097290;27;45249;-49
2022/12/13 06:51:02;;;;;;;;;32.75;25.25;;;;;-0.28;59.34;100275.38;5096888;27;45554;-54
2022/12/13 06:53:28;;;;;;;;;21.75;18.25;;;;;-0.29;59.63;100272.88;5096812;27;45884;-50
2022/12/13 06:55:53;;;;;;;;;23.00;18.25;;;;;-0.28;59.38;100267.53;5097351;27;45314;-52
2022/12/13 06:58:19;;;;;;;;;27.00;20.25;;;;;-0.36;59.41;100250.63;5097052;27;45325;-51
2022/12/13 07:00:44;;;;;;;;;41.00;24.50;;;;;-0.35;59.01;100254.91;5096610;27;46069;-51
2022/12/13 07:03:10;;;;;;;;;42.50;29.00;;;;;-0.30;59.73;100261.53;5096974;27;45445;-48
2022/12/13 07:05:39;;;;;;;;;33.00;24.00;;;;;-0.28;59.44;100262.31;5096836;27;45374;-53
2022/12/13 07:08:04;;;;;;;;;26.25;17.75;;;;;-0.27;59.76;100260.53;5097969;27;45533;-51
2022/12/13 07:10:30;;;;;;;;;27.00;23.25;;;;;-0.30;59.61;100258.94;5100403;27;46028;-52
2022/12/13 07:12:56;;;;;;;;;23.75;19.50;;;;;-0.31;59.64;100252.03;5100176;27;45440;-48
2022/12/13 07:15:21;;;;;;;;;30.25;23.50;;;;;-0.32;59.63;100250.34;5100722;27;45366;-52
2022/12/13 07:17:50;;;;;;;;;25.00;20.25;;;;;-0.31;59.48;100256.41;5100500;27;45311;-51
2022/12/13 07:20:18;;;;;;;;;31.50;25.50;;;;;-0.35;59.92;100247.06;5099971;27;45358;-51
2022/12/13 07:22:43;;;;;;;;;34.25;26.00;;;;;-0.30;59.92;100255.47;5100105;27;45215;-50
2022/12/13 07:25:09;;;;;;;;;31.25;21.50;;;;;-0.30;59.36;100258.09;5100183;27;45402;-51
2022/12/13 07:27:34;;;;;;;;;33.25;25.50;;;;;-0.33;59.07;100269.59;5100396;27;45416;-50
2022/12/13 07:30:00;;;;;;;;;28.00;22.25;;;;;-0.34;59.13;100280.09;5099816;27;45860;-51
2022/12/13 07:32:25;;;;;;;;;29.50;22.00;;;;;-0.34;59.47;100278.34;5097965;27;45860;-51
2022/12/13 07:34:51;;;;;;;;;31.25;20.00;;;;;-0.35;59.63;100291.50;5099532;27;45357;-52
2022/12/13 07:37:16;;;;;;;;;24.00;16.00;;;;;-0.40;59.52;100270.84;5099912;27;45346;-52
2022/12/13 07:39:42;;;;;;;;;33.25;26.75;;;;;-0.36;59.90;100290.66;5099860;27;45350;-53
2022/12/13 07:42:07;;;;;;;;;33.50;24.25;;;;;-0.36;59.10;100285.44;5098233;27;45532;-53
2022/12/13 07:44:32;;;;;;;;;26.50;22.50;;;;;-0.37;59.79;100283.75;5099818;27;45454;-52
2022/12/13 07:46:58;;;;;;;;;31.00;23.00;;;;;-0.40;59.93;100283.91;5100041;27;45243;-53
2022/12/13 07:49:23;;;;;;;;;29.50;24.25;;;;;-0.39;59.82;100279.53;5099238;27;47007;-51
2022/12/13 07:51:49;;;;;;;;;31.25;24.50;;;;;-0.38;60.00;100289.91;5099328;27;45402;-52
2022/12/13 07:54:14;;;;;;;;;28.25;23.25;;;;;-0.41;59.68;100303.16;5099471;27;45459;-49
2022/12/13 07:56:39;;;;;;;;;30.50;24.00;;;;;-0.39;59.02;100313.50;5099832;27;45331;-50
2022/12/13 07:59:05;;;;;;;;;32.50;27.50;;;;;-0.40;58.92;100309.22;5105327;27;46640;-52
2022/12/13 08:01:33;;;;;;;;;35.25;26.00;;;;;-0.39;59.71;100309.13;5096253;27;45519;-52
2022/12/13 08:03:59;;;;;;;;;31.00;26.25;;;;;-0.38;59.12;100315.19;5097001;27;45510;-51
2022/12/13 08:06:24;;;;;;;;;27.25;26.50;;;;;-0.41;59.46;100328.44;5096731;27;45397;-53
2022/12/13 08:08:54;;;;;;;;;32.00;22.75;;;;;-0.38;59.26;100328.25;5096413;27;45567;-52
2022/12/13 08:11:19;;;;;;;;;27.50;21.75;;;;;-0.36;58.92;100327.25;5096583;27;45495;-49
2022/12/13 08:13:45;;;;;;;;;40.75;24.75;;;;;-0.37;59.70;100322.13;5095344;27;45875;-46
2022/12/13 08:16:13;;;;;;;;;37.50;29.25;;;;;-0.32;59.61;100325.31;5097098;27;45551;-49
2022/12/13 08:18:39;;;;;;;;;48.50;30.75;;;;;-0.31;59.10;100311.28;5096245;27;46076;-52
2022/12/13 08:21:06;;;;;;;;;33.25;22.50;;;;;-0.29;59.41;100328.59;5095512;27;45363;-51
2022/12/13 08:23:33;;;;;;;;;34.75;24.25;;;;;-0.30;59.36;100337.34;5096555;27;45476;-52
2022/12/13 08:25:59;;;;;;;;;35.00;25.50;;;;;-0.39;59.70;100319.56;5096544;27;45786;-48
2022/12/13 08:28:25;;;;;;;;;35.00;28.50;;;;;-0.27;59.57;100338.94;5095911;27;45484;-49
2022/12/13 08:30:50;;;;;;;;;32.25;28.00;;;;;-0.26;59.40;100332.78;5096008;27;45443;-49
2022/12/13 08:33:17;;;;;;;;;43.75;28.25;;;;;-0.30;58.96;100321.66;5096257;27;45412;-53
2022/12/13 08:35:42;;;;;;;;;30.25;24.25;;;;;-0.24;59.59;100338.78;5096564;27;45432;-51
2022/12/13 08:38:08;;;;;;;;;32.00;27.00;;;;;-0.22;59.71;100343.91;5096023;27;46571;-57
2022/12/13 08:40:33;;;;;;;;;32.25;24.50;;;;;-0.30;59.61;100323.44;5094492;27;45721;-48
2022/12/13 08:42:59;;;;;;;;;31.00;22.25;;;;;-0.15;59.32;100340.03;5096492;27;45915;-55
2022/12/13 08:45:25;;;;;;;;;42.00;30.00;;;;;-0.12;58.75;100337.22;5096374;27;45391;-53
2022/12/13 08:47:51;;;;;;;;;28.50;23.75;;;;;-0.13;59.17;100328.53;5096128;27;46072;-54
2022/12/13 08:50:16;;;;;;;;;24.25;20.00;;;;;-0.10;59.36;100340.59;5095403;27;45413;-46
2022/12/13 08:52:43;;;;;;;;;41.25;29.00;;;;;-0.11;58.93;100341.53;5096010;27;45476;-55
2022/12/13 08:55:13;;;;;;;;;30.50;25.00;;;;;-0.13;59.28;100343.38;5096469;27;45438;-54
2022/12/13 08:57:40;;;;;;;;;37.50;28.25;;;;;-0.11;58.92;100344.13;5095795;27;45469;-50
2022/12/13 09:00:10;;;;;;;;;32.50;25.00;;;;;-0.13;58.82;100346.81;5095713;27;45623;-47
2022/12/13 09:02:36;;;;;;;;;33.25;25.00;;;;;-0.05;59.32;100342.00;5094100;27;45444;-49
2022/12/13 09:05:02;;;;;;;;;32.25;24.00;;;;;-0.03;59.20;100341.94;5095976;27;45504;-51
2022/12/13 09:07:27;;;;;;;;;40.00;29.50;;;;;-0.03;58.12;100332.31;5095520;27;46237;-48
2022/12/13 09:09:53;;;;;;;;;36.00;26.75;;;;;0.01;58.20;100334.75;5095779;27;45343;-50
2022/12/13 09:12:18;;;;;;;;;30.00;26.00;;;;;0.08;59.25;100328.22;5095579;27;45392;-51
2022/12/13 09:14:45;;;;;;;;;44.00;26.50;;;;;0.10;58.50;100326.38;5095923;27;45335;-51
2022/12/13 09:17:11;;;;;;;;;35.25;29.00;;;;;0.12;58.84;100317.47;5095430;27;46251;-49
2022/12/13 09:19:36;;;;;;;;;37.00;30.25;;;;;0.25;58.17;100325.44;5095323;27;45386;-55
2022/12/13 09:22:01;;;;;;;;;30.00;24.25;;;;;0.31;58.13;100317.25;5095484;27;46179;-54
2022/12/13 09:24:27;;;;;;;;;42.00;31.50;;;;;0.40;58.18;100314.06;5096001;27;45538;-55
2022/12/13 09:26:52;;;;;;;;;40.25;37.50;;;;;0.44;57.58;100326.03;5095074;27;46872;-54
2022/12/13 09:29:18;;;;;;;;;33.50;26.50;;;;;0.57;57.52;100313.03;5095451;27;45502;-52
2022/12/13 09:31:43;;;;;;;;;25.00;22.50;;;;;0.63;57.76;100310.06;5093884;27;45547;-55
2022/12/13 09:34:10;;;;;;;;;37.00;31.50;;;;;0.74;57.45;100317.25;5095194;27;45452;-53
2022/12/13 09:36:35;;;;;;;;;36.00;28.00;;;;;0.87;56.88;100310.31;5095058;27;46159;-54
2022/12/13 09:39:01;;;;;;;;;33.00;28.00;;;;;1.20;57.02;100315.22;5095196;27;45509;-53
2022/12/13 09:41:26;;;;;;;;;35.50;30.25;;;;;1.48;55.82;100314.28;5094775;27;45499;-53
2022/12/13 09:43:56;;;;;;;;;22.25;15.50;;;;;1.65;56.20;100312.34;5095400;27;45404;-51
2022/12/13 09:46:28;;;;;;;;;45.50;34.00;;;;;1.77;55.72;100308.94;5094833;27;46054;-56
2022/12/13 09:48:55;;;;;;;;;45.50;38.00;;;;;1.80;54.29;100305.25;5109379;27;45959;-55
2022/12/13 09:51:21;;;;;;;;;39.00;33.75;;;;;1.94;54.95;100308.66;5095241;27;45425;-64
2022/12/13 09:53:50;;;;;;;;;40.00;33.50;;;;;2.03;54.24;100301.94;5095108;27;45444;-65
2022/12/13 09:56:22;;;;;;;;;37.50;33.00;;;;;2.12;54.33;100301.31;5094119;27;45510;-59
2022/12/13 09:58:50;;;;;;;;;33.25;26.00;;;;;2.23;53.90;100300.56;5094841;27;45367;-47
2022/12/13 10:01:15;;;;;;;;;34.00;31.00;;;;;2.44;52.62;100298.28;5094962;27;45446;-56
2022/12/13 10:03:45;;;;;;;;;41.50;31.00;;;;;2.75;53.22;100303.09;5095117;27;45532;-50
2022/12/13 10:06:14;;;;;;;;;37.25;31.25;;;;;2.92;52.41;100301.06;5094927;27;45455;-54
2022/12/13 10:08:52;;;;;;;;;37.00;28.50;;;;;3.02;52.82;100296.81;5094313;27;45521;-62
2022/12/13 10:11:19;;;;;;;;;34.50;30.50;;;;;2.88;52.37;100302.22;5094718;27;45503;-61
2022/12/13 10:13:56;;;;;;;;;33.25;28.00;;;;;2.91;51.93;100299.41;5095045;27;45460;-52
2022/12/13 10:16:33;;;;;;;;;50.00;32.50;;;;;3.13;51.05;100302.16;5094598;27;46119;-60
2022/12/13 10:19:00;;;;;;;;;39.25;33.25;;;;;3.18;51.16;100291.31;5093822;27;45432;-56
2022/12/13 10:21:39;;;;;;;;;35.50;31.50;;;;;3.34;51.74;100307.66;5094875;27;45460;-49
2022/12/13 10:24:17;;;;;;;;;54.00;41.00;;;;;3.53;50.25;100306.31;5094963;27;45424;-48
2022/12/13 10:26:42;;;;;;;;;40.00;34.75;;;;;3.63;49.86;100302.06;5093123;27;46128;-49
2022/12/13 10:29:09;;;;;;;;;40.00;32.00;;;;;3.46;49.70;100306.78;5093717;27;45568;-66
2022/12/13 10:31:47;;;;;;;;;49.75;32.25;;;;;3.61;49.98;100269.78;5092244;27;45994;-49
2022/12/13 10:34:24;;;;;;;;;42.75;33.00;;;;;3.64;49.84;100274.81;5095018;27;45402;-46
2022/12/13 10:36:49;;;;;;;;;35.75;31.75;;;;;3.36;50.33;100286.50;5094429;27;46268;-53
2022/12/13 10:39:38;;;;;;;;;55.50;37.00;;;;;3.09;50.73;100294.63;5093989;27;45476;-67
2022/12/13 10:42:18;;;;;;;;;44.25;35.75;;;;;3.00;50.61;100301.38;5094465;27;45541;-47
2022/12/13 10:44:44;;;;;;;;;50.50;40.00;;;;;3.24;50.61;100291.72;5098060;27;45398;-47
2022/12/13 10:47:09;;;;;;;;;38.50;28.00;;;;;3.57;51.44;100286.72;5098078;27;45428;-57
2022/12/13 10:49:56;;;;;;;;;34.00;32.50;;;;;3.48;49.93;100288.25;5097816;27;45493;-55
2022/12/13 10:52:29;;;;;;;;;39.00;30.50;;;;;3.74;50.34;100287.16;5097851;27;45394;-62
2022/12/13 10:54:56;;;;;;;;;45.25;31.00;;;;;4.27;49.15;100277.97;5098188;27;45229;-50
2022/12/13 10:57:23;;;;;;;;;46.25;33.75;;;;;4.24;49.05;100261.44;5095799;27;46454;-51
2022/12/13 10:59:49;;;;;;;;;41.75;31.75;;;;;4.04;49.40;100261.28;5097763;27;45434;-57
2022/12/13 11:02:29;;;;;;;;;40.75;31.50;;;;;4.43;48.72;100257.41;5097925;27;45361;-62
2022/12/13 11:04:56;;;;;;;;;39.50;32.00;;;;;4.86;47.96;100235.56;5096835;27;46321;-66
2022/12/13 11:07:32;;;;;;;;;35.00;28.25;;;;;5.44;47.73;100258.06;5097099;27;45666;-47
2022/12/13 11:10:15;;;;;;;;;39.50;29.00;;;;;5.75;46.50;100244.97;5097359;27;45516;-53
2022/12/13 11:12:41;;;;;;;;;34.50;32.00;;;;;5.76;44.72;100244.00;5097663;27;45385;-56
2022/12/13 11:15:15;;;;;;;;;37.00;29.50;;;;;5.81;45.21;100239.16;5097737;27;45534;-47
2022/12/13 11:17:56;;;;;;;;;30.50;27.50;;;;;5.51;45.55;100222.28;5097322;27;45491;-50
2022/12/13 11:20:25;;;;;;;;;38.50;30.50;;;;;5.39;44.81;100217.19;5096934;27;45498;-66
2022/12/13 11:23:01;;;;;;;;;40.50;29.25;;;;;5.03;45.35;100216.59;5097489;27;46744;-70